Vancouver International Airport
CYVR : now visible

Airfield :











YOU CAN JOIN US ON...

 
LOGIN :

Register | Disclaimer

   EN    FR    IT 

 









Legend :    VFR   Marginal VFR   IFR   Intensive IFR   Very Intensive IFR
Visi :
Ceiling :
>= 8 km
>= 3000ft
5 to 8 km
1000 to 3000 ft
1500m to 5 km
500 to 1000 ft
800 to 1500m
200 to 500 ft
< 800m
< 200 ft
Symbols :   Thunderstorms  Fog  Heavy snow  Heavy precipitations  Wind > 20 kt






- Airport Elevation : 14 ft
- IATA code : YVR


CYVR - Vancouver International

CURRENT METAR :
  • 291700Z 24003KT 20SM FEW080 SCT170 BKN240 18/12 A2995 RMK ACC1AC3CS4 ACC TR SLP145 DENSITY ALT 300FT

EXPIRED METARs :
  • 291600Z 15006KT 20SM FEW080 SCT170 BKN240 17/12 A2996 RMK ACC1AC3CS4 ACC TR SLP147 DENSITY ALT 300FT
  • 291500Z 16005KT 20SM FEW080 SCT170 BKN240 17/12 A2996 RMK ACC1AC4CS3 ACC TR SLP146 DENSITY ALT 200FT

TAF TAF CYVR
Valid from the 29 at 15:00 until the 30 at 18:00 UTC


291438Z 2915/3018 VRB03KT P6SM FEW160 BKN200
BECMG 2916/2918 28010KT
FM300400 29008KT P6SM OVC140
FM301500 29012KT P6SM SCT080 OVC120 RMK NXT FCST BY 291800Z
CZVR FIR / North America



MET'MAP, your aeronautical weather chart ! - Copyright ORBIFLY December 2007 - Disclaimer

ORBIFLY MET'MAP TEAM :

Programming & Development : Alexandra Zaïnal
Concept & original design : Baudouin d'Aumeries
Assistance for programming : Marc-Olivier Méhu
Technical & hardware support : Manuel Goepfert

Contact : metmap@orbifly.com




SOURCES & CREDITS :

   NOAA       Earth
Advisory